Time;durP1;ratioP1;P1;durP2;ratioP2;P2;SDS_P1;SDS_P2;PMS_P1;PMS_P2;Temp;Humidity;BMP_temperature;BMP_pressure;BME280_temperature;BME280_humidity;BME280_pressure;Samples;Min_cycle;Max_cycle;Signal;HPM_P1;HPM_P2
2021/12/12 05:02:00;;;;;;;10.30;4.83;;;3.60;99.90;;;;;;5327528;23;20484;-75
2021/12/12 05:04:33;;;;;;;5.00;4.50;;;3.60;99.90;;;;;;4973594;28;20479;-75
2021/12/12 05:07:05;;;;;;;9.60;5.20;;;3.60;99.90;;;;;;4974147;28;20539;-75
2021/12/12 05:09:36;;;;;;;11.57;4.80;;;3.60;99.90;;;;;;4973563;28;20577;-76
2021/12/12 05:12:08;;;;;;;7.97;5.30;;;3.60;99.90;;;;;;4959182;28;20555;-76
2021/12/12 05:14:38;;;;;;;6.93;4.40;;;3.70;99.90;;;;;;4979342;23;20539;-78
2021/12/12 05:17:11;;;;;;;7.00;5.07;;;3.70;99.90;;;;;;4956732;29;20500;-79
2021/12/12 05:19:42;;;;;;;7.43;4.43;;;3.70;99.90;;;;;;4956506;29;20843;-78
2021/12/12 05:22:13;;;;;;;9.10;4.57;;;3.70;99.90;;;;;;4957312;29;20523;-78
2021/12/12 05:24:43;;;;;;;8.90;4.50;;;3.70;99.90;;;;;;4956366;28;20515;-78
2021/12/12 05:27:14;;;;;;;9.93;5.57;;;3.70;99.90;;;;;;4956493;29;20532;-78
2021/12/12 05:29:46;;;;;;;7.93;5.20;;;3.80;99.90;;;;;;4956869;29;20876;-79
2021/12/12 05:32:16;;;;;;;14.37;5.90;;;3.70;99.90;;;;;;4956409;29;20979;-79
2021/12/12 05:34:48;;;;;;;6.43;5.07;;;3.70;99.90;;;;;;4956285;28;20576;-79
2021/12/12 05:37:16;;;;;;;8.30;5.00;;;3.70;99.90;;;;;;4956214;28;20453;-79
2021/12/12 05:39:45;;;;;;;11.20;5.30;;;3.70;99.90;;;;;;4956055;29;20863;-79
2021/12/12 05:42:13;;;;;;;9.43;4.97;;;3.70;99.90;;;;;;4956454;29;21044;-79
2021/12/12 05:44:41;;;;;;;10.20;4.40;;;3.80;99.90;;;;;;4955987;28;20527;-79
2021/12/12 05:47:12;;;;;;;9.97;5.57;;;3.70;99.90;;;;;;4956098;29;20904;-79
2021/12/12 05:49:42;;;;;;;6.27;5.00;;;3.70;99.90;;;;;;4956748;28;20472;-78
2021/12/12 05:52:12;;;;;;;9.00;5.20;;;3.70;99.90;;;;;;4955423;29;21029;-79
2021/12/12 05:54:40;;;;;;;6.00;5.23;;;3.70;99.90;;;;;;4955929;28;21000;-79
2021/12/12 05:57:09;;;;;;;7.27;4.80;;;3.70;99.90;;;;;;4956184;29;20540;-78
2021/12/12 05:59:36;;;;;;;7.73;5.30;;;3.70;99.90;;;;;;4955899;29;20941;-79
2021/12/12 06:02:06;;;;;;;8.37;4.93;;;3.70;99.90;;;;;;4955928;29;20488;-79
2021/12/12 06:04:34;;;;;;;12.80;5.57;;;3.70;99.90;;;;;;4957421;28;20469;-79
2021/12/12 06:07:04;;;;;;;8.33;5.10;;;3.70;99.90;;;;;;4960407;28;20535;-79
2021/12/12 06:09:33;;;;;;;14.33;5.30;;;3.70;99.90;;;;;;4959634;28;20456;-79
2021/12/12 06:12:03;;;;;;;9.87;4.60;;;3.70;99.90;;;;;;4959400;29;20471;-79
2021/12/12 06:14:33;;;;;;;8.20;5.53;;;3.60;99.90;;;;;;4960067;28;20590;-78
2021/12/12 06:17:08;;;;;;;10.03;5.00;;;3.60;99.90;;;;;;4960158;29;20436;-78
2021/12/12 06:19:37;;;;;;;5.97;4.90;;;3.60;99.90;;;;;;4959245;29;20547;-78
2021/12/12 06:22:06;;;;;;;11.87;5.13;;;3.50;99.90;;;;;;4960593;29;20548;-78
2021/12/12 06:24:35;;;;;;;7.80;4.97;;;3.40;99.90;;;;;;4960261;28;20507;-78
2021/12/12 06:27:06;;;;;;;6.30;5.20;;;3.40;99.90;;;;;;4960276;29;20854;-78
2021/12/12 06:29:34;;;;;;;11.43;5.20;;;3.40;99.90;;;;;;4960431;28;20528;-78
2021/12/12 06:32:02;;;;;;;7.60;5.43;;;3.30;99.90;;;;;;4959562;29;20520;-78
2021/12/12 06:34:29;;;;;;;5.97;4.43;;;3.30;99.90;;;;;;4958015;28;20583;-78
2021/12/12 06:36:57;;;;;;;11.63;5.33;;;3.30;99.90;;;;;;4958228;29;20532;-78
2021/12/12 06:39:27;;;;;;;10.03;4.90;;;3.20;99.90;;;;;;4957827;29;20458;-78
2021/12/12 06:41:54;;;;;;;7.80;5.50;;;3.20;99.90;;;;;;4958228;29;20539;-78
2021/12/12 06:44:21;;;;;;;8.00;4.90;;;3.10;99.90;;;;;;4957942;28;20494;-79
2021/12/12 06:46:49;;;;;;;8.00;5.40;;;3.10;99.90;;;;;;4957660;29;20915;-78
2021/12/12 06:49:17;;;;;;;8.10;5.20;;;3.10;99.90;;;;;;4958167;29;20457;-78
2021/12/12 06:51:49;;;;;;;7.53;5.30;;;3.10;99.90;;;;;;4958485;29;20535;-73
2021/12/12 06:54:17;;;;;;;7.03;5.17;;;3.00;99.90;;;;;;4956872;28;20576;-69
2021/12/12 06:56:47;;;;;;;8.93;5.30;;;2.90;99.90;;;;;;4956721;29;20543;-69
2021/12/12 06:59:14;;;;;;;9.33;6.33;;;2.80;99.90;;;;;;4956698;29;20452;-69
2021/12/12 07:01:42;;;;;;;12.00;4.83;;;2.80;99.90;;;;;;4957090;29;20539;-76
2021/12/12 07:04:13;;;;;;;10.70;5.70;;;2.80;99.90;;;;;;4956999;28;20554;-76
2021/12/12 07:06:41;;;;;;;9.33;6.17;;;2.70;99.90;;;;;;4956917;29;20456;-76
2021/12/12 07:09:10;;;;;;;6.00;5.37;;;2.70;99.90;;;;;;4956473;29;20967;-76
2021/12/12 07:11:39;;;;;;;8.30;5.53;;;2.70;99.90;;;;;;4956860;29;20490;-76
2021/12/12 07:14:10;;;;;;;8.33;5.50;;;2.70;99.90;;;;;;4956499;28;21036;-76
2021/12/12 07:16:38;;;;;;;11.33;6.07;;;2.70;99.90;;;;;;4955426;28;20555;-76
2021/12/12 07:19:06;;;;;;;6.90;6.13;;;2.70;99.90;;;;;;4956344;29;20544;-76
2021/12/12 07:21:34;;;;;;;7.60;6.33;;;2.60;99.90;;;;;;4956429;29;20544;-76
2021/12/12 07:24:02;;;;;;;8.10;5.90;;;2.60;99.90;;;;;;4956141;28;20977;-76
2021/12/12 07:26:29;;;;;;;13.03;5.77;;;2.60;99.90;;;;;;4956490;29;20539;-76
2021/12/12 07:28:59;;;;;;;7.10;5.80;;;2.60;99.90;;;;;;4956270;29;20523;-76
2021/12/12 07:31:30;;;;;;;8.27;6.03;;;2.60;99.90;;;;;;4956233;29;20536;-76
2021/12/12 07:34:01;;;;;;;8.80;5.27;;;2.60;99.90;;;;;;4956127;28;20522;-76
2021/12/12 07:36:33;;;;;;;9.43;6.13;;;2.60;99.90;;;;;;4953006;29;20496;-76
2021/12/12 07:39:02;;;;;;;10.77;6.40;;;2.60;99.90;;;;;;4946648;29;20528;-76
2021/12/12 07:41:31;;;;;;;10.53;6.67;;;2.70;99.90;;;;;;4956130;29;20537;-76
2021/12/12 07:44:00;;;;;;;9.30;6.40;;;2.70;99.90;;;;;;4956028;29;20559;-76
2021/12/12 07:46:29;;;;;;;7.30;5.80;;;2.60;99.90;;;;;;4955891;29;21056;-76
2021/12/12 07:48:57;;;;;;;12.53;6.70;;;2.50;99.90;;;;;;4955511;29;21012;-76
2021/12/12 07:51:26;;;;;;;14.17;8.40;;;2.60;99.90;;;;;;4956051;29;20540;-76
2021/12/12 07:53:57;;;;;;;12.87;8.10;;;2.60;99.90;;;;;;4955863;29;20588;-76
2021/12/12 07:56:27;;;;;;;10.70;8.07;;;2.60;99.90;;;;;;4955869;29;20519;-76
2021/12/12 07:58:55;;;;;;;11.27;7.83;;;2.60;99.90;;;;;;4955564;29;20536;-76
2021/12/12 08:01:22;;;;;;;11.43;7.60;;;2.60;99.90;;;;;;4955463;29;20449;-76
2021/12/12 08:03:53;;;;;;;10.73;7.60;;;2.50;99.90;;;;;;4955785;29;20483;-77
2021/12/12 08:06:20;;;;;;;12.67;6.90;;;2.50;99.90;;;;;;4955793;29;20536;-77
2021/12/12 08:08:47;;;;;;;14.37;7.50;;;2.60;99.90;;;;;;4955635;29;20452;-76
2021/12/12 08:11:17;;;;;;;10.57;7.80;;;2.60;99.90;;;;;;4955565;29;20642;-76
2021/12/12 08:13:44;;;;;;;13.00;8.87;;;2.60;99.90;;;;;;4955159;29;20933;-76
2021/12/12 08:16:14;;;;;;;16.33;8.60;;;2.60;99.90;;;;;;4955584;29;21155;-76
2021/12/12 08:18:41;;;;;;;16.20;7.90;;;2.60;99.90;;;;;;4955400;29;20459;-77
2021/12/12 08:21:10;;;;;;;14.93;9.07;;;2.60;99.90;;;;;;4955098;29;20544;-77
2021/12/12 08:23:38;;;;;;;16.80;9.07;;;2.70;99.90;;;;;;4955291;28;20567;-77
2021/12/12 08:26:09;;;;;;;30.47;18.47;;;2.70;99.90;;;;;;4955268;29;20540;-77
2021/12/12 08:28:37;;;;;;;31.90;18.43;;;2.80;99.90;;;;;;4954597;28;20471;-77
2021/12/12 08:31:05;;;;;;;29.10;17.40;;;2.80;99.90;;;;;;4955091;29;20540;-77
2021/12/12 08:33:32;;;;;;;12.50;7.40;;;2.90;99.90;;;;;;4954772;29;20480;-77
2021/12/12 08:36:02;;;;;;;9.07;7.23;;;3.00;99.90;;;;;;4954776;29;20528;-77
2021/12/12 08:38:31;;;;;;;11.73;7.70;;;3.10;99.90;;;;;;4954702;29;20771;-77
2021/12/12 08:41:01;;;;;;;11.37;8.53;;;3.20;99.90;;;;;;4954521;29;20641;-77
2021/12/12 08:43:29;;;;;;;11.00;7.30;;;3.30;99.90;;;;;;4955080;29;20531;-76
2021/12/12 08:45:59;;;;;;;12.60;7.70;;;3.40;99.90;;;;;;4954899;29;20886;-77
2021/12/12 08:48:30;;;;;;;9.53;6.80;;;3.50;99.90;;;;;;4954786;29;20997;-77
2021/12/12 08:51:01;;;;;;;10.50;6.50;;;3.60;99.90;;;;;;4954897;29;20483;-77
2021/12/12 08:53:30;;;;;;;12.90;6.83;;;3.60;99.90;;;;;;4954385;29;20563;-77
2021/12/12 08:55:58;;;;;;;10.93;6.70;;;3.60;99.90;;;;;;4954736;29;20588;-77
2021/12/12 08:58:29;;;;;;;8.07;7.27;;;3.70;99.90;;;;;;4954858;28;20453;-77
2021/12/12 09:00:59;;;;;;;10.83;7.50;;;3.70;99.90;;;;;;4954554;29;20862;-77
2021/12/12 09:03:31;;;;;;;12.13;7.70;;;3.70;99.90;;;;;;4954518;29;20564;-77
2021/12/12 09:05:58;;;;;;;11.63;7.80;;;3.80;99.90;;;;;;4954401;28;21033;-77
2021/12/12 09:08:35;;;;;;;11.57;8.03;;;3.80;99.90;;;;;;4954431;29;20545;-77
2021/12/12 09:11:08;;;;;;;13.70;8.20;;;3.90;99.90;;;;;;4954371;29;20497;-77
2021/12/12 09:13:40;;;;;;;13.17;7.20;;;3.90;99.90;;;;;;4954312;29;20564;-78
2021/12/12 09:16:11;;;;;;;12.43;6.70;;;3.90;99.90;;;;;;4954834;29;20493;-77
2021/12/12 09:18:44;;;;;;;15.20;7.97;;;3.90;99.90;;;;;;4955753;29;20883;-78
2021/12/12 09:21:13;;;;;;;8.43;6.97;;;4.00;99.90;;;;;;4956157;28;20543;-78
2021/12/12 09:23:51;;;;;;;9.23;7.07;;;4.00;99.90;;;;;;4957163;29;20504;-77
2021/12/12 09:26:23;;;;;;;13.23;7.57;;;4.10;99.90;;;;;;4956881;29;20488;-77
2021/12/12 09:28:56;;;;;;;10.70;7.17;;;4.20;99.90;;;;;;4956761;28;20470;-76
2021/12/12 09:31:27;;;;;;;9.43;6.97;;;4.20;99.90;;;;;;4957111;29;20500;-77
2021/12/12 09:33:59;;;;;;;11.23;7.23;;;4.30;99.90;;;;;;4956974;29;20531;-77
2021/12/12 09:36:34;;;;;;;6.90;5.73;;;4.30;99.90;;;;;;4957440;29;20520;-77
2021/12/12 09:39:09;;;;;;;10.30;6.00;;;4.30;99.90;;;;;;4956542;28;20491;-77
2021/12/12 09:41:57;;;;;;;8.80;6.10;;;4.30;99.90;;;;;;4957732;29;20480;-78
2021/12/12 09:44:55;;;;;;;9.63;6.80;;;4.30;99.90;;;;;;4957460;29;20500;-78
2021/12/12 09:47:57;;;;;;;10.00;6.50;;;4.40;99.90;;;;;;4949160;28;20556;-77
2021/12/12 09:53:43;;;;;;;13.73;7.10;;;4.50;99.90;;;;;;4957791;29;20563;-76
2021/12/12 09:56:19;;;;;;;8.27;5.40;;;4.50;99.90;;;;;;4957122;29;21056;-78
2021/12/12 09:58:56;;;;;;;7.33;5.13;;;4.70;99.90;;;;;;4957012;29;20527;-77
2021/12/12 10:01:27;;;;;;;8.37;6.20;;;4.70;99.90;;;;;;4957498;29;20773;-78
2021/12/12 10:04:10;;;;;;;11.03;5.37;;;4.70;99.90;;;;;;4957842;29;20969;-78
2021/12/12 10:06:46;;;;;;;6.80;5.50;;;4.80;99.90;;;;;;4957709;28;20487;-78
2021/12/12 10:09:16;;;;;;;6.03;5.43;;;4.90;99.90;;;;;;4957562;29;20460;-78
2021/12/12 10:11:49;;;;;;;6.40;5.60;;;5.00;99.90;;;;;;4957901;29;20484;-78
2021/12/12 10:14:24;;;;;;;5.67;4.70;;;5.00;99.90;;;;;;4957357;29;20484;-78
2021/12/12 10:16:59;;;;;;;5.50;4.70;;;5.00;99.90;;;;;;4956846;29;20476;-77
2021/12/12 10:19:31;;;;;;;6.40;4.57;;;5.00;99.90;;;;;;4957761;29;20874;-76
2021/12/12 10:22:10;;;;;;;5.70;4.40;;;4.90;99.90;;;;;;4957578;28;20472;-78
2021/12/12 10:24:43;;;;;;;6.00;4.53;;;5.00;99.90;;;;;;4956186;29;20587;-78
2021/12/12 10:27:18;;;;;;;5.37;4.40;;;5.00;99.90;;;;;;4953157;29;20492;-77
2021/12/12 10:29:56;;;;;;;4.53;4.13;;;5.00;99.90;;;;;;4953468;29;20501;-77
2021/12/12 10:32:27;;;;;;;4.93;4.40;;;5.10;99.90;;;;;;4953584;29;20456;-76
2021/12/12 10:35:01;;;;;;;4.43;3.30;;;5.20;99.90;;;;;;4953420;29;20579;-77
2021/12/12 10:37:33;;;;;;;4.47;3.73;;;5.20;99.90;;;;;;4955263;29;20484;-77
2021/12/12 10:40:06;;;;;;;3.97;3.50;;;5.20;99.90;;;;;;4955396;29;20484;-77
2021/12/12 10:42:53;;;;;;;4.00;3.63;;;5.30;99.90;;;;;;4953518;29;20997;-77
2021/12/12 10:45:27;;;;;;;4.30;3.57;;;5.30;99.90;;;;;;4953540;29;20532;-77
2021/12/12 10:47:58;;;;;;;4.70;4.13;;;5.30;99.90;;;;;;4953357;29;20449;-77
2021/12/12 10:50:33;;;;;;;3.87;3.20;;;5.30;99.90;;;;;;4954309;28;20441;-77
2021/12/12 10:53:07;;;;;;;4.83;4.20;;;5.40;99.90;;;;;;4957306;28;20788;-77
2021/12/12 10:55:41;;;;;;;5.63;3.90;;;5.40;99.90;;;;;;4956809;28;21016;-77
2021/12/12 10:58:15;;;;;;;4.93;3.73;;;5.50;99.90;;;;;;4956958;29;20492;-78
2021/12/12 11:00:44;;;;;;;4.43;3.60;;;5.50;99.90;;;;;;4957122;29;21019;-77
2021/12/12 11:03:20;;;;;;;5.00;3.70;;;5.50;99.90;;;;;;4958415;29;20508;-77
2021/12/12 11:05:55;;;;;;;3.70;3.40;;;5.50;99.90;;;;;;4958519;29;20539;-77
2021/12/12 11:08:38;;;;;;;4.37;3.63;;;5.60;99.90;;;;;;4958404;28;20471;-77
2021/12/12 11:11:13;;;;;;;4.03;3.67;;;5.60;99.90;;;;;;4956392;28;20838;-77
2021/12/12 11:13:46;;;;;;;3.83;3.43;;;5.70;99.90;;;;;;4957640;29;20928;-76
2021/12/12 11:16:20;;;;;;;3.17;2.90;;;5.70;99.90;;;;;;4957444;29;20595;-75
2021/12/12 11:18:57;;;;;;;5.27;3.17;;;5.70;99.90;;;;;;4957864;29;20531;-77
2021/12/12 11:21:31;;;;;;;3.60;3.30;;;5.70;99.90;;;;;;4956998;29;20532;-77
2021/12/12 11:24:01;;;;;;;4.40;3.63;;;5.60;99.90;;;;;;4956762;28;20494;-77
2021/12/12 11:26:40;;;;;;;5.80;4.23;;;5.70;99.90;;;;;;4956504;29;20504;-77
2021/12/12 11:29:11;;;;;;;7.03;3.67;;;5.80;99.90;;;;;;4956064;29;20461;-76
2021/12/12 11:31:44;;;;;;;10.90;5.30;;;5.80;99.90;;;;;;4956457;29;20756;-76
2021/12/12 11:34:13;;;;;;;5.80;4.20;;;5.90;99.90;;;;;;4956045;29;20487;-76
2021/12/12 11:36:50;;;;;;;7.77;4.50;;;6.00;99.90;;;;;;4956074;29;20579;-76
2021/12/12 11:39:24;;;;;;;4.33;3.43;;;6.00;99.90;;;;;;4956007;29;20456;-77
2021/12/12 11:41:58;;;;;;;3.07;2.77;;;5.90;99.90;;;;;;4956115;29;20459;-76
2021/12/12 11:44:30;;;;;;;5.00;3.60;;;5.90;99.90;;;;;;4955944;29;20473;-77
2021/12/12 11:47:09;;;;;;;7.30;4.03;;;5.80;99.90;;;;;;4956168;28;21037;-77
2021/12/12 11:49:50;;;;;;;4.77;3.70;;;5.80;99.90;;;;;;4955801;28;20548;-77
2021/12/12 11:52:28;;;;;;;3.03;2.73;;;5.70;99.90;;;;;;4955847;29;20476;-77
2021/12/12 11:55:01;;;;;;;4.47;3.40;;;5.60;99.90;;;;;;4955483;28;20917;-77
2021/12/12 11:57:30;;;;;;;3.50;3.10;;;5.60;99.90;;;;;;4955693;29;20543;-77
2021/12/12 12:00:08;;;;;;;3.87;3.47;;;5.70;99.90;;;;;;4955659;29;20477;-77
2021/12/12 12:02:41;;;;;;;3.83;3.53;;;5.80;99.90;;;;;;4954756;28;20515;-77
2021/12/12 12:05:23;;;;;;;5.67;3.40;;;5.90;99.90;;;;;;4955448;29;20548;-76
2021/12/12 12:08:01;;;;;;;3.73;3.43;;;6.00;99.90;;;;;;4955679;29;20452;-76
2021/12/12 12:10:41;;;;;;;5.17;3.60;;;6.20;99.90;;;;;;4955335;29;20488;-77
2021/12/12 12:13:39;;;;;;;5.80;3.30;;;6.30;99.90;;;;;;4955349;29;20531;-77
2021/12/12 12:16:18;;;;;;;4.80;3.37;;;6.30;99.90;;;;;;4955344;29;20584;-77
2021/12/12 12:18:55;;;;;;;2.83;2.60;;;6.30;99.90;;;;;;4955744;29;20539;-76
2021/12/12 12:21:27;;;;;;;3.53;3.20;;;6.40;99.90;;;;;;4955225;29;20940;-77
2021/12/12 12:24:13;;;;;;;3.40;2.97;;;6.40;99.90;;;;;;4955041;29;20495;-77
2021/12/12 12:26:55;;;;;;;4.97;3.60;;;6.50;99.90;;;;;;4955609;29;20787;-76
2021/12/12 12:29:58;;;;;;;4.13;3.03;;;6.50;99.90;;;;;;4954934;29;20456;-77
2021/12/12 12:33:23;;;;;;;4.23;3.03;;;6.50;99.90;;;;;;4954914;28;20548;-77
2021/12/12 12:36:43;;;;;;;5.80;3.13;;;6.40;99.90;;;;;;4954779;29;20583;-76
2021/12/12 12:39:56;;;;;;;3.70;3.20;;;6.50;99.90;;;;;;4954712;28;20520;-77
2021/12/12 12:42:57;;;;;;;5.43;2.83;;;6.50;99.90;;;;;;4954924;28;20459;-77
2021/12/12 12:45:59;;;;;;;3.57;3.07;;;6.50;99.90;;;;;;4954855;28;20456;-76
2021/12/12 12:49:03;;;;;;;3.27;2.80;;;6.50;99.90;;;;;;4954775;28;20945;-78
2021/12/12 12:51:50;;;;;;;3.60;2.90;;;6.60;99.90;;;;;;4954923;29;20543;-76
2021/12/12 12:54:26;;;;;;;3.57;2.83;;;6.60;99.90;;;;;;4954672;29;20560;-78
2021/12/12 12:57:21;;;;;;;3.60;2.73;;;6.60;99.90;;;;;;4954500;29;20528;-77
2021/12/12 13:00:07;;;;;;;5.80;3.60;;;6.70;99.90;;;;;;4954574;29;20453;-76
2021/12/12 13:03:02;;;;;;;4.00;3.30;;;6.70;99.90;;;;;;4955239;29;20463;-77
2021/12/12 13:06:02;;;;;;;5.27;3.40;;;6.80;99.90;;;;;;4955818;28;20810;-78
2021/12/12 13:09:04;;;;;;;4.03;3.17;;;6.80;99.90;;;;;;4956322;29;20804;-78
2021/12/12 13:11:44;;;;;;;5.33;3.47;;;6.80;99.90;;;;;;4954983;29;20464;-78
2021/12/12 13:14:22;;;;;;;2.63;2.43;;;6.70;99.90;;;;;;4954977;28;21052;-77
2021/12/12 13:16:55;;;;;;;6.70;2.70;;;6.70;99.90;;;;;;4954980;28;20502;-77
2021/12/12 13:19:39;;;;;;;5.33;2.77;;;6.80;99.90;;;;;;4954740;29;20488;-78
2021/12/12 13:22:11;;;;;;;4.77;2.97;;;6.70;99.90;;;;;;4954733;29;20902;-78
2021/12/12 13:24:54;;;;;;;3.43;3.13;;;6.70;99.90;;;;;;4955086;29;20501;-78
2021/12/12 13:27:39;;;;;;;9.90;3.00;;;6.80;99.90;;;;;;4956409;29;20484;-78
2021/12/12 13:30:15;;;;;;;3.47;3.17;;;6.70;99.90;;;;;;4956711;29;20552;-78
2021/12/12 13:32:53;;;;;;;4.30;3.30;;;6.70;99.90;;;;;;4955619;29;20835;-77
2021/12/12 13:35:25;;;;;;;5.20;3.20;;;6.70;99.90;;;;;;4956145;29;20480;-78
2021/12/12 13:38:06;;;;;;;5.40;3.40;;;6.70;99.90;;;;;;4955465;29;20543;-78
2021/12/12 13:40:40;;;;;;;3.27;2.87;;;6.70;99.90;;;;;;4953386;29;20915;-79
2021/12/12 13:43:18;;;;;;;5.37;3.87;;;6.70;99.90;;;;;;4953985;29;20908;-78
2021/12/12 13:45:56;;;;;;;5.10;3.10;;;6.70;99.90;;;;;;4953748;28;20448;-79
2021/12/12 13:48:43;;;;;;;3.93;3.10;;;6.80;99.90;;;;;;4953454;29;21072;-75
2021/12/12 13:51:22;;;;;;;5.80;3.37;;;6.80;99.90;;;;;;4953044;29;20532;-75
2021/12/12 13:54:15;;;;;;;4.53;3.67;;;6.70;99.90;;;;;;4953178;28;20483;-75
2021/12/12 13:57:01;;;;;;;4.83;3.10;;;6.80;99.90;;;;;;4948608;28;20496;-74
2021/12/12 13:59:39;;;;;;;3.17;2.83;;;6.70;99.90;;;;;;4952872;29;21015;-74
2021/12/12 14:02:09;;;;;;;3.50;3.20;;;6.70;99.90;;;;;;4952868;29;20496;-75
2021/12/12 14:04:46;;;;;;;2.77;2.50;;;6.70;99.90;;;;;;4952908;29;20622;-75
2021/12/12 14:07:13;;;;;;;3.30;2.53;;;6.70;99.90;;;;;;4952851;29;20897;-74
2021/12/12 14:09:44;;;;;;;3.53;2.93;;;6.70;99.90;;;;;;4952671;29;20455;-74
2021/12/12 14:12:13;;;;;;;4.70;2.67;;;6.70;99.90;;;;;;4952527;29;20540;-74
2021/12/12 14:14:47;;;;;;;3.57;3.23;;;6.70;99.90;;;;;;4952582;29;20472;-74
2021/12/12 14:17:25;;;;;;;4.57;2.80;;;6.70;99.90;;;;;;4952525;29;20497;-74
2021/12/12 14:19:59;;;;;;;2.97;2.27;;;6.70;99.90;;;;;;4952796;28;20483;-75
2021/12/12 14:22:27;;;;;;;4.17;2.40;;;6.60;99.90;;;;;;4952584;29;20504;-74
2021/12/12 14:24:59;;;;;;;3.27;2.60;;;6.60;99.90;;;;;;4952813;28;21040;-74
2021/12/12 14:27:29;;;;;;;3.73;2.93;;;6.70;99.90;;;;;;4956444;29;20457;-75
2021/12/12 14:29:57;;;;;;;4.60;3.50;;;6.70;99.90;;;;;;4956651;29;20540;-75
2021/12/12 14:32:30;;;;;;;5.93;3.33;;;6.70;99.90;;;;;;4956401;29;20539;-75
2021/12/12 14:35:01;;;;;;;2.73;2.53;;;6.70;99.90;;;;;;4956724;29;20544;-74
2021/12/12 14:37:30;;;;;;;2.73;2.50;;;6.70;99.90;;;;;;4956890;29;20672;-75
2021/12/12 14:40:02;;;;;;;3.00;2.70;;;6.70;99.90;;;;;;4957021;29;20536;-73
2021/12/12 14:42:32;;;;;;;3.27;2.33;;;6.70;99.90;;;;;;4957230;29;20488;-74
2021/12/12 14:45:09;;;;;;;5.10;2.83;;;6.70;99.90;;;;;;4957087;29;21000;-74
2021/12/12 14:47:39;;;;;;;4.27;2.53;;;6.70;99.90;;;;;;4957227;28;20445;-74
2021/12/12 14:50:14;;;;;;;5.13;3.30;;;6.70;99.90;;;;;;4957004;29;20500;-74
2021/12/12 14:52:45;;;;;;;2.50;2.30;;;6.70;99.90;;;;;;4957007;29;20638;-74
2021/12/12 14:55:19;;;;;;;4.03;2.70;;;6.80;99.90;;;;;;4957146;29;20535;-73
2021/12/12 14:57:50;;;;;;;4.20;2.60;;;6.80;99.90;;;;;;4956889;29;20532;-73
2021/12/12 15:00:21;;;;;;;4.67;2.93;;;6.80;99.90;;;;;;4941994;29;20489;-74
2021/12/12 15:02:52;;;;;;;3.70;2.27;;;6.80;99.90;;;;;;4938062;29;20564;-74
2021/12/12 15:05:23;;;;;;;3.90;3.13;;;6.80;99.90;;;;;;4937609;29;20906;-73
2021/12/12 15:07:54;;;;;;;3.50;3.00;;;6.70;99.90;;;;;;4937775;29;20534;-73
2021/12/12 15:10:27;;;;;;;7.10;3.70;;;6.70;99.90;;;;;;4937259;29;20485;-73
2021/12/12 15:12:59;;;;;;;3.47;2.90;;;6.70;99.90;;;;;;4937278;29;20481;-74
2021/12/12 15:15:32;;;;;;;9.87;6.13;;;6.80;99.90;;;;;;4937657;29;20489;-73
2021/12/12 15:18:04;;;;;;;6.57;4.43;;;6.80;99.90;;;;;;4937504;29;21104;-74
2021/12/12 15:20:33;;;;;;;6.10;4.13;;;6.80;99.90;;;;;;4937094;29;20453;-73
2021/12/12 15:23:04;;;;;;;10.03;4.20;;;6.80;99.90;;;;;;4937188;29;20512;-73
2021/12/12 15:25:36;;;;;;;7.93;3.00;;;6.70;99.90;;;;;;4937500;29;20544;-73
2021/12/12 15:28:08;;;;;;;4.57;3.20;;;6.70;99.90;;;;;;4937224;29;20544;-74
2021/12/12 15:30:41;;;;;;;6.20;3.20;;;6.70;99.90;;;;;;4936956;29;20910;-73
2021/12/12 15:33:14;;;;;;;5.77;3.90;;;6.70;99.90;;;;;;4937122;29;20572;-73
2021/12/12 15:35:42;;;;;;;8.70;3.27;;;6.70;99.90;;;;;;4936912;29;20533;-73
2021/12/12 15:38:12;;;;;;;4.50;3.70;;;6.70;99.90;;;;;;4935811;29;21002;-73
2021/12/12 15:40:43;;;;;;;5.63;3.73;;;6.70;99.90;;;;;;4936666;29;20549;-73
2021/12/12 15:43:15;;;;;;;6.63;3.83;;;6.70;99.90;;;;;;4936964;29;20528;-73
2021/12/12 15:45:45;;;;;;;4.70;4.07;;;6.60;99.90;;;;;;4937001;29;20461;-73
2021/12/12 15:48:16;;;;;;;5.20;3.83;;;6.60;99.90;;;;;;4936836;29;20989;-73
2021/12/12 15:50:45;;;;;;;6.27;4.27;;;6.60;99.90;;;;;;4936691;29;20552;-73
2021/12/12 15:53:20;;;;;;;4.90;3.80;;;6.60;99.90;;;;;;4936584;29;20564;-73
2021/12/12 15:55:49;;;;;;;6.50;4.40;;;6.50;99.90;;;;;;4936742;29;20448;-73
2021/12/12 15:58:21;;;;;;;8.03;5.00;;;6.50;99.90;;;;;;4936651;29;20536;-73
2021/12/12 16:00:52;;;;;;;6.00;4.70;;;6.50;99.90;;;;;;4936593;29;20489;-78
2021/12/12 16:03:21;;;;;;;8.90;4.80;;;6.50;99.90;;;;;;4937850;29;20477;-79
2021/12/12 16:05:53;;;;;;;12.40;4.90;;;6.50;99.90;;;;;;4937546;29;20454;-78
2021/12/12 16:08:22;;;;;;;8.73;5.40;;;6.60;99.90;;;;;;4937258;29;20446;-76
2021/12/12 16:10:51;;;;;;;6.60;4.23;;;6.50;99.90;;;;;;4936225;29;20466;-72
2021/12/12 16:13:26;;;;;;;7.73;4.53;;;6.60;99.90;;;;;;4936381;29;20513;-72
2021/12/12 16:15:56;;;;;;;6.40;5.00;;;6.60;99.90;;;;;;4936497;29;20465;-73
2021/12/12 16:18:29;;;;;;;6.67;4.80;;;6.60;99.90;;;;;;4936238;29;21045;-73
2021/12/12 16:20:58;;;;;;;9.27;5.60;;;6.50;99.90;;;;;;4936077;29;20439;-70
2021/12/12 16:23:27;;;;;;;7.33;4.67;;;6.60;99.90;;;;;;4936054;29;20533;-71
2021/12/12 16:25:57;;;;;;;4.67;3.77;;;6.50;99.90;;;;;;4936381;29;20545;-74
2021/12/12 16:28:31;;;;;;;6.70;4.03;;;6.50;99.90;;;;;;4936221;29;20466;-74
2021/12/12 16:31:01;;;;;;;5.90;3.70;;;6.40;99.90;;;;;;4935870;29;20540;-73
2021/12/12 16:33:32;;;;;;;4.93;3.97;;;6.30;99.90;;;;;;4935921;29;20505;-74
2021/12/12 16:36:00;;;;;;;9.93;4.30;;;6.40;99.90;;;;;;4935148;29;20492;-74
2021/12/12 16:38:33;;;;;;;9.23;4.70;;;6.40;99.90;;;;;;4935397;29;20504;-74
2021/12/12 16:41:06;;;;;;;7.93;4.60;;;6.40;99.90;;;;;;4935959;29;20533;-73
2021/12/12 16:43:39;;;;;;;6.83;4.43;;;6.40;99.90;;;;;;4935641;29;20906;-74
2021/12/12 16:46:09;;;;;;;8.13;5.13;;;6.50;99.90;;;;;;4935839;29;20505;-73
2021/12/12 16:48:42;;;;;;;10.90;5.33;;;6.50;99.90;;;;;;4935218;29;20481;-74
2021/12/12 16:51:12;;;;;;;17.17;8.50;;;6.40;99.90;;;;;;4935863;29;20462;-73
2021/12/12 16:53:41;;;;;;;21.90;10.53;;;6.50;99.90;;;;;;4935830;29;20518;-73
2021/12/12 16:56:10;;;;;;;15.30;8.90;;;6.50;99.90;;;;;;4935925;29;20485;-73
2021/12/12 16:58:44;;;;;;;16.53;7.80;;;6.40;99.90;;;;;;4935313;29;20501;-73
2021/12/12 17:01:16;;;;;;;10.93;7.40;;;6.50;99.90;;;;;;4935460;29;20541;-73
2021/12/12 17:03:47;;;;;;;6.20;4.50;;;6.40;99.90;;;;;;4935372;29;20514;-73
2021/12/12 17:06:17;;;;;;;6.20;4.70;;;6.50;99.90;;;;;;4935629;29;20958;-73
2021/12/12 17:09:11;;;;;;;8.27;4.47;;;6.50;99.90;;;;;;4935187;29;20497;-73
2021/12/12 17:11:44;;;;;;;4.93;3.90;;;6.50;99.90;;;;;;4935212;29;20546;-73
2021/12/12 17:14:17;;;;;;;5.80;4.10;;;6.50;99.90;;;;;;4967744;23;20607;-77
2021/12/12 17:16:47;;;;;;;6.20;3.87;;;6.50;99.90;;;;;;4973901;28;20511;-78
2021/12/12 17:19:17;;;;;;;7.00;4.10;;;6.50;99.90;;;;;;4973498;28;20515;-78
2021/12/12 17:21:49;;;;;;;5.07;3.90;;;6.40;99.90;;;;;;4973714;28;20479;-78
2021/12/12 17:24:20;;;;;;;4.00;3.57;;;6.40;99.90;;;;;;4968141;28;20482;-77
2021/12/12 17:26:49;;;;;;;4.33;3.50;;;6.50;99.90;;;;;;4954659;29;20544;-77
2021/12/12 17:29:24;;;;;;;7.37;4.60;;;6.40;99.90;;;;;;4954435;29;20453;-78
2021/12/12 17:31:59;;;;;;;11.40;4.60;;;6.50;99.90;;;;;;4954233;29;20452;-77
2021/12/12 17:34:31;;;;;;;6.60;5.27;;;6.60;99.90;;;;;;4954039;28;20468;-77
2021/12/12 17:37:02;;;;;;;7.30;5.17;;;6.60;99.90;;;;;;4954384;29;20572;-78
2021/12/12 17:39:37;;;;;;;8.40;4.97;;;6.60;99.90;;;;;;4954379;29;20441;-79
2021/12/12 17:42:37;;;;;;;5.10;4.40;;;6.60;99.90;;;;;;4954420;29;20429;-73
2021/12/12 17:45:42;;;;;;;7.30;4.70;;;6.60;99.90;;;;;;4948147;28;20480;-74
2021/12/12 17:48:52;;;;;;;7.80;4.00;;;6.60;99.90;;;;;;4954277;29;20476;-77
2021/12/12 17:51:58;;;;;;;7.17;4.20;;;6.60;99.90;;;;;;4907520;28;20464;-77
2021/12/12 17:54:36;;;;;;;5.10;4.00;;;6.60;99.90;;;;;;4953794;28;20512;-77
2021/12/12 17:57:11;;;;;;;6.20;4.40;;;6.60;99.90;;;;;;4953907;29;20527;-77
2021/12/12 17:59:48;;;;;;;7.87;5.73;;;6.60;99.90;;;;;;4953398;29;20480;-77
2021/12/12 18:02:20;;;;;;;9.13;6.97;;;6.70;99.90;;;;;;4953909;28;20452;-77
2021/12/12 18:04:49;;;;;;;6.70;5.67;;;6.70;99.90;;;;;;4953836;28;20559;-77
2021/12/12 18:07:57;;;;;;;4.77;4.23;;;6.70;99.90;;;;;;4953694;28;20449;-77
2021/12/12 18:10:37;;;;;;;5.40;4.47;;;6.70;99.90;;;;;;4953626;29;20973;-76
2021/12/12 18:13:11;;;;;;;9.70;5.10;;;6.70;99.90;;;;;;4954113;29;20466;-77
2021/12/12 18:15:48;;;;;;;5.83;4.43;;;6.80;99.90;;;;;;4953760;28;21096;-77
2021/12/12 18:18:57;;;;;;;10.70;4.77;;;6.70;99.90;;;;;;4953272;29;21015;-77
2021/12/12 18:21:32;;;;;;;6.03;4.33;;;6.60;99.90;;;;;;4953801;29;20452;-77
2021/12/12 18:24:05;;;;;;;8.20;4.53;;;6.60;99.90;;;;;;4953651;28;20563;-77
2021/12/12 18:26:54;;;;;;;5.93;4.57;;;6.60;99.90;;;;;;4953329;29;20524;-77
2021/12/12 18:29:45;;;;;;;9.20;5.20;;;6.60;99.90;;;;;;4953395;29;20548;-77
2021/12/12 18:32:24;;;;;;;6.47;5.07;;;6.60;99.90;;;;;;4953508;28;20488;-77
2021/12/12 18:34:51;;;;;;;7.37;5.27;;;6.60;99.90;;;;;;4953189;28;20559;-77
2021/12/12 18:37:28;;;;;;;6.00;4.77;;;6.60;99.90;;;;;;4953554;29;20496;-77